Lansdowne, MD

11:49 AM EDT on August 21, 2014 (GMT -0400)
SW Baltimore County | Change Station
CLOSE
Current Station
Personal Weather Station
Location: Lansdowne, MD
Elevation: 120 ft
Nearby Weather Stations

Elev 120 ft 39.24 °N, 76.65 °W | Updated 10 minutes ago

Scattered Clouds
Scattered Clouds
81.2 °F
Feels Like 85 °F
N
0.0
Wind Variable Wind from North

Today
High -- | Low -- °F
--% Chance of Precip.
Yesterday
High -- | Low -- °F
Precip. -- in
6:25 AM 7:53 PM
Waning Crescent, 13% visible
Pressure 30.04 in
Visibility 10.0 miles
Clouds Few 900 ft
Scattered Clouds 6000 ft
Scattered Clouds 14000 ft
Scattered Clouds 25000 ft
Heat Index 85 °F
Dew Point 71 °F
Humidity 71%
Rainfall 0.00 in
Snow Depth Not available.
UV 6 out of 12
Pollen 9.10 out of 12
Air Quality Not available.
Flu Activity Not available.
METAR KBWI 211454Z 25003KT 10SM FEW009 SCT060 SCT140 SCT250 26/21 A3004 RMK AO2 SLP171 60000 T02610211 58002

More Conditions Fewer Conditions

Pressure 30.04 in
Visibility 10.0 miles
Clouds Few 900 ft
Scattered Clouds 6000 ft
Scattered Clouds 14000 ft
Scattered Clouds 25000 ft
Heat Index 85 °F
Dew Point 71 °F
Humidity 71%
Rainfall 0.00 in
Snow Depth Not available.
UV 6 out of 12
Pollen 9.10 out of 12
Air Quality Not available.
Flu Activity Not available.
METAR KBWI 211454Z 25003KT 10SM FEW009 SCT060 SCT140 SCT250 26/21 A3004 RMK AO2 SLP171 60000 T02610211 58002

More Conditions Fewer Conditions

10-Day Weather Forecast

Almanac

Astronomy

Aug. 21, 2014 Rise Set
Actual Time 6:25 AM EDT 7:53 PM EDT
Civil Twilight 5:56 AM EDT 8:21 PM EDT
Nautical Twilight 5:22 AM EDT 8:55 PM EDT
Astronomical Twilight 4:47 AM EDT 9:31 PM EDT
Moon 2:54 AM EDT 5:20 PM EDT
Length of Visible Light 14h 24m
Length of Day
13h 28m
Tomorrow will be 2m 20s shorter.
Waning Crescent, 13% of the Moon is Illuminated
Today
Waning Crescent
Aug 25
New
Sep 2
First Quarter
Sep 8
Full
Sep 15
Last Quarter

Today's Extremes

State Highs State Lows

Community

WunderPhotos

Upload Photos

1,745,949 photos uploaded!

Nearby

Snow Depth

Station Depth Elevation
No new snow has been reported.

Earthquake Activity

City Distance Mag. Time & Date
No recent earthquake activity has been reported nearby.
Minimum magnitude displayed is 2.5.

Coastal Water Temperatures

Place Temperature
Baltimore, MD 80.1 °F
Tolchester Beach, MD 79.0 °F
Washington, DC 78.1 °F

Nearby Weather Stations